Terminal Aerodrome Forecast
Issued by NWS

Home | Current Version | Previous Version | Text Only | Print | Product List | Glossary On
Versions: 1 2 3 4 5 6 7 8 9 10 11 12 13 14 15 16 17 18 19
988
FTUS44 KLZK 310814 AAA
TAFHRO
TAF AMD
KHRO 310814Z 3108/0106 17005KT P6SM VCTS SCT040CB BKN080
     FM311000 VRB03KT 5SM BR SCT100 BKN250
      TEMPO 3110/3114 2SM BR BKN015
     FM311500 18005KT P6SM SCT025 SCT250
     FM311800 18006KT P6SM VCTS SCT035CB BKN250=

USA.gov is the U.S. government's official web portal to all federal, state and local government web resources and services.